createdAt,value
2022-10-28T00:17:47.791Z,16.40
2022-10-28T00:21:32.410Z,16.40
2022-10-28T00:25:14.644Z,16.40
2022-10-28T00:29:05.131Z,16.40
2022-10-28T00:32:47.509Z,16.50
2022-10-28T00:36:32.756Z,16.50
2022-10-28T00:40:15.250Z,16.50
2022-10-28T00:44:02.177Z,16.60
2022-10-28T00:48:01.201Z,16.60
2022-10-28T00:51:47.209Z,16.60
2022-10-28T00:55:30.702Z,16.50
2022-10-28T00:59:19.085Z,16.60
2022-10-28T01:03:04.896Z,16.60
2022-10-28T01:06:48.424Z,16.50
2022-10-28T01:10:55.921Z,16.50
2022-10-28T01:15:28.521Z,16.50
2022-10-28T01:19:40.000Z,16.40
2022-10-28T01:24:01.860Z,16.40
2022-10-28T01:27:57.895Z,16.30
2022-10-28T01:31:44.484Z,16.40
2022-10-28T01:35:48.285Z,16.30
2022-10-28T01:39:52.100Z,16.30
2022-10-28T01:43:45.192Z,16.30
2022-10-28T01:47:36.596Z,16.30
2022-10-28T01:51:43.391Z,16.20
2022-10-28T01:55:38.302Z,16.20
2022-10-28T01:59:26.819Z,16.20
2022-10-28T02:03:11.501Z,16.20
2022-10-28T02:07:00.231Z,16.20
2022-10-28T02:11:02.522Z,16.10
2022-10-28T02:15:14.606Z,16.10
2022-10-28T02:19:14.053Z,16.10
2022-10-28T02:23:21.756Z,16.00
2022-10-28T02:27:26.305Z,15.90
2022-10-28T02:31:21.585Z,15.90
2022-10-28T02:35:09.120Z,15.70
2022-10-28T02:38:54.815Z,15.70
2022-10-28T02:42:55.331Z,15.60
2022-10-28T02:46:40.045Z,15.50
2022-10-28T02:50:33.766Z,15.50
2022-10-28T02:54:28.077Z,15.40
2022-10-28T02:58:12.549Z,15.40
2022-10-28T03:01:58.158Z,15.40
2022-10-28T03:05:40.916Z,15.50
2022-10-28T03:09:23.174Z,15.70
2022-10-28T03:13:05.511Z,16.00
2022-10-28T03:16:47.759Z,16.20
2022-10-28T03:20:29.845Z,16.40
2022-10-28T03:24:12.593Z,16.50
2022-10-28T03:27:54.954Z,16.70
2022-10-28T03:31:37.869Z,16.70
2022-10-28T03:35:20.128Z,16.90
2022-10-28T03:39:02.492Z,17.00
2022-10-28T04:27:19.794Z,16.90
2022-10-28T04:31:03.025Z,16.80
2022-10-28T04:34:45.467Z,16.90
2022-10-28T04:38:33.342Z,17.00
2022-10-28T04:42:18.188Z,17.00
2022-10-28T04:46:06.378Z,17.00
2022-10-28T04:49:49.290Z,17.00
2022-10-28T04:53:31.385Z,17.10
2022-10-28T04:57:13.621Z,17.10
2022-10-28T05:00:56.171Z,17.10
2022-10-28T05:04:38.574Z,17.20
2022-10-28T05:08:21.203Z,17.20
2022-10-28T05:12:03.510Z,17.20
2022-10-28T05:15:50.222Z,17.10
2022-10-28T05:19:32.578Z,17.10
2022-10-28T05:23:30.786Z,17.10
2022-10-28T05:27:13.303Z,17.00
2022-10-28T05:30:58.160Z,17.00
2022-10-28T05:34:40.447Z,16.90
2022-10-28T05:38:22.800Z,17.00
2022-10-28T05:42:05.186Z,17.00
2022-10-28T05:45:57.870Z,17.00
2022-10-28T05:49:40.226Z,17.00
2022-10-28T05:53:22.478Z,16.90
2022-10-28T05:57:07.781Z,16.90
2022-10-28T06:00:50.318Z,16.90
2022-10-28T06:04:33.657Z,16.80
2022-10-28T06:08:15.921Z,16.90
2022-10-28T06:11:58.135Z,16.90
2022-10-28T06:15:47.527Z,17.00
2022-10-28T06:19:29.897Z,17.10
2022-10-28T06:23:12.040Z,17.10
2022-10-28T06:26:54.179Z,17.20
2022-10-28T06:30:36.412Z,17.20
2022-10-28T06:34:18.611Z,17.20
2022-10-28T06:38:00.897Z,17.10
2022-10-28T06:41:44.298Z,17.10
2022-10-28T06:45:31.680Z,17.10
2022-10-28T06:49:15.545Z,17.10
2022-10-28T06:52:58.602Z,17.10
2022-10-28T06:56:41.026Z,17.00
2022-10-28T07:00:23.398Z,16.90
2022-10-28T07:04:07.043Z,16.90
2022-10-28T07:07:49.291Z,16.80
2022-10-28T07:11:31.414Z,16.80
2022-10-28T07:15:13.957Z,16.70
2022-10-28T07:18:56.302Z,16.70
2022-10-28T07:22:38.609Z,16.60
2022-10-28T07:26:20.624Z,16.50
2022-10-28T07:30:02.942Z,16.40
2022-10-28T07:33:45.797Z,16.30
2022-10-28T07:37:29.913Z,16.20
2022-10-28T07:41:12.074Z,16.20
2022-10-28T07:44:54.431Z,16.20
2022-10-28T07:48:37.945Z,16.20
2022-10-28T07:52:20.506Z,16.20
2022-10-28T07:56:06.252Z,16.20
2022-10-28T07:59:48.447Z,16.20
2022-10-28T08:03:38.031Z,16.20
2022-10-28T08:07:21.044Z,16.20
2022-10-28T08:11:11.078Z,16.30
2022-10-28T08:14:53.623Z,16.30
2022-10-28T08:18:36.791Z,16.30
2022-10-28T08:22:18.832Z,16.30
2022-10-28T08:26:01.846Z,16.30
2022-10-28T08:29:44.022Z,16.40
2022-10-28T08:33:26.049Z,16.40
2022-10-28T08:37:08.139Z,16.40
2022-10-28T08:41:18.589Z,16.40
2022-10-28T08:45:34.489Z,16.50
2022-10-28T08:49:19.906Z,16.50
2022-10-28T08:53:14.995Z,16.50
2022-10-28T08:57:01.129Z,16.40
2022-10-28T09:00:47.114Z,16.40
2022-10-28T09:04:46.780Z,16.50
2022-10-28T09:08:31.816Z,16.60
2022-10-28T09:12:33.373Z,16.70
2022-10-28T09:16:50.504Z,16.70
2022-10-28T09:20:52.446Z,16.80
2022-10-28T09:25:07.252Z,17.00
2022-10-28T09:28:56.486Z,17.00
2022-10-28T09:32:43.852Z,17.20
2022-10-28T09:36:34.819Z,17.70
2022-10-28T09:40:27.418Z,18.50
2022-10-28T09:44:20.921Z,19.60
2022-10-28T09:48:18.201Z,20.80
2022-10-28T09:52:25.097Z,22.20
2022-10-28T09:59:50.847Z,24.10
2022-10-28T10:03:33.599Z,24.80
2022-10-28T10:07:26.236Z,25.50
2022-10-28T10:11:29.052Z,25.40
2022-10-28T10:15:19.746Z,25.80
2022-10-28T10:19:05.544Z,26.60
2022-10-28T10:22:55.247Z,27.10
2022-10-28T10:26:37.747Z,27.70
2022-10-28T10:30:39.179Z,27.90
2022-10-28T10:34:27.107Z,28.10
2022-10-28T10:38:16.158Z,28.70
2022-10-28T10:42:18.760Z,28.70
2022-10-28T10:46:14.373Z,28.70
2022-10-28T10:50:22.970Z,29.20
2022-10-28T10:54:05.310Z,29.80
2022-10-28T10:57:48.729Z,29.80
2022-10-28T11:01:37.136Z,29.70
2022-10-28T11:05:27.178Z,29.30
2022-10-28T11:09:31.117Z,28.90
2022-10-28T11:13:27.271Z,28.70
2022-10-28T11:17:24.889Z,28.70
2022-10-28T11:21:25.852Z,28.40
2022-10-28T11:25:40.552Z,27.10
2022-10-28T11:29:23.076Z,26.50
2022-10-28T11:33:30.698Z,26.70
2022-10-28T11:37:24.365Z,26.80
2022-10-28T11:41:31.021Z,27.00
2022-10-28T11:45:37.906Z,27.20
2022-10-28T11:49:28.897Z,27.00
2022-10-28T11:53:37.209Z,26.50
2022-10-28T11:57:49.028Z,25.80
2022-10-28T12:01:43.100Z,25.20
2022-10-28T12:05:45.138Z,25.20
2022-10-28T12:09:42.307Z,25.60
2022-10-28T12:13:58.115Z,26.10
2022-10-28T12:18:05.995Z,26.50
2022-10-28T12:22:04.616Z,27.00
2022-10-28T12:25:50.319Z,27.50
2022-10-28T12:29:37.502Z,27.80
2022-10-28T12:33:37.312Z,27.70
2022-10-28T12:37:48.547Z,27.60
2022-10-28T12:42:00.316Z,27.00
2022-10-28T12:45:43.710Z,26.40
2022-10-28T12:49:48.731Z,26.20
2022-10-28T12:53:39.799Z,26.00
2022-10-28T12:57:25.140Z,26.00
2022-10-28T13:01:16.984Z,25.70
2022-10-28T13:04:59.966Z,25.20
2022-10-28T13:09:03.871Z,24.10
2022-10-28T13:12:53.675Z,22.70
2022-10-28T13:16:41.863Z,21.50
2022-10-28T13:20:59.894Z,20.80
2022-10-28T13:24:52.555Z,20.30
2022-10-28T13:28:41.433Z,20.00
2022-10-28T13:32:40.830Z,19.70
2022-10-28T13:36:36.474Z,19.40
2022-10-28T13:40:32.602Z,19.10
2022-10-28T13:44:24.697Z,18.80
2022-10-28T13:48:28.543Z,18.70
2022-10-28T13:52:12.738Z,18.40
2022-10-28T13:55:58.438Z,18.30
2022-10-28T14:00:04.147Z,18.20
2022-10-28T14:03:51.867Z,18.10
2022-10-28T14:07:39.775Z,18.00
2022-10-28T14:11:30.592Z,18.00
2022-10-28T14:15:15.675Z,18.00
2022-10-28T14:19:15.410Z,17.90
2022-10-28T14:22:57.795Z,17.90
2022-10-28T14:27:08.199Z,17.90
2022-10-28T14:31:14.649Z,17.90
2022-10-28T14:35:19.701Z,18.10
2022-10-28T14:39:04.694Z,18.00
2022-10-28T14:43:05.752Z,18.00
2022-10-28T14:47:13.475Z,17.90
2022-10-28T14:50:56.298Z,17.90
2022-10-28T14:54:52.471Z,17.90
2022-10-28T14:58:39.594Z,17.90
2022-10-28T15:02:28.999Z,17.80
2022-10-28T15:06:32.137Z,17.90
2022-10-28T15:10:39.315Z,17.80
2022-10-28T15:14:27.868Z,17.70
2022-10-28T15:18:25.342Z,17.60
2022-10-28T15:22:16.490Z,17.50
2022-10-28T15:26:12.866Z,17.50
2022-10-28T15:29:56.016Z,17.40
2022-10-28T15:33:40.749Z,17.40
2022-10-28T15:37:30.894Z,17.30
2022-10-28T15:45:00.241Z,17.20
2022-10-28T15:48:42.828Z,17.10
2022-10-28T15:52:33.306Z,17.00
2022-10-28T15:56:15.243Z,16.90
2022-10-28T16:00:25.115Z,16.80
2022-10-28T16:04:19.269Z,16.70
2022-10-28T16:08:31.851Z,16.70
2022-10-28T16:12:25.072Z,16.50
2022-10-28T16:16:13.553Z,16.40
2022-10-28T16:20:17.038Z,16.30
2022-10-28T16:24:00.782Z,16.20
2022-10-28T16:32:48.930Z,16.00
2022-10-28T16:36:32.417Z,15.80
2022-10-28T16:40:37.651Z,15.70
2022-10-28T16:44:18.542Z,15.60
2022-10-28T16:48:00.635Z,15.50
2022-10-28T16:51:44.851Z,15.40
2022-10-28T16:55:27.715Z,15.30
2022-10-28T16:59:09.667Z,15.20
2022-10-28T17:02:51.688Z,15.10
2022-10-28T17:06:34.916Z,15.00
2022-10-28T17:10:17.669Z,14.90
2022-10-28T17:13:59.682Z,14.70
2022-10-28T17:17:41.854Z,14.60
2022-10-28T17:21:23.897Z,14.50
2022-10-28T17:25:06.237Z,14.50
2022-10-28T17:28:52.664Z,14.40
2022-10-28T17:32:34.669Z,14.30
2022-10-28T17:36:16.679Z,14.20
2022-10-28T17:39:58.804Z,14.20
2022-10-28T17:43:41.011Z,14.10
2022-10-28T17:47:23.161Z,14.00
2022-10-28T17:51:05.381Z,14.00
2022-10-28T17:54:47.409Z,13.90
2022-10-28T17:58:29.533Z,13.80
2022-10-28T18:02:15.129Z,13.80
2022-10-28T18:06:01.541Z,13.70
2022-10-28T18:09:43.734Z,13.70
2022-10-28T18:13:30.469Z,13.60
2022-10-28T18:17:17.469Z,13.50
2022-10-28T18:20:59.465Z,13.50
2022-10-28T18:24:41.783Z,13.40
2022-10-28T18:28:23.772Z,13.40
2022-10-28T18:32:05.775Z,13.40
2022-10-28T18:35:48.060Z,13.30
2022-10-28T18:39:30.976Z,13.30
2022-10-28T18:43:12.914Z,13.20
2022-10-28T18:46:54.864Z,13.20
2022-10-28T18:50:36.775Z,13.20
2022-10-28T18:54:18.693Z,13.20
2022-10-28T18:58:00.783Z,13.10
2022-10-28T19:01:46.929Z,13.10
2022-10-28T19:05:29.215Z,13.10
2022-10-28T19:09:11.181Z,13.10
2022-10-28T19:12:53.360Z,13.20
2022-10-28T19:16:38.211Z,13.10
2022-10-28T19:20:20.672Z,13.10
2022-10-28T19:24:03.667Z,13.10
2022-10-28T19:27:45.610Z,13.10
2022-10-28T19:31:30.590Z,13.10
2022-10-28T19:35:12.645Z,13.00
2022-10-28T19:38:56.383Z,13.00
2022-10-28T19:42:39.076Z,13.00
2022-10-28T19:46:22.248Z,13.10
2022-10-28T19:50:04.413Z,13.10
2022-10-28T19:53:57.507Z,13.10
2022-10-28T19:57:39.507Z,13.10
2022-10-28T20:01:23.285Z,13.10
2022-10-28T20:05:05.678Z,13.10
2022-10-28T20:08:49.425Z,13.10
2022-10-28T20:12:31.432Z,13.10
2022-10-28T20:16:14.468Z,13.10
2022-10-28T20:19:56.408Z,13.10
2022-10-28T20:23:42.186Z,13.10
2022-10-28T20:27:27.523Z,13.10
2022-10-28T20:31:15.143Z,13.10
2022-10-28T20:34:57.267Z,13.10
2022-10-28T20:38:39.295Z,13.10
2022-10-28T20:42:21.482Z,13.10
2022-10-28T20:46:04.449Z,13.10
2022-10-28T20:49:49.624Z,13.10
2022-10-28T20:53:34.490Z,13.10
2022-10-28T20:57:16.607Z,13.10
2022-10-28T21:01:07.697Z,13.10
2022-10-28T21:05:20.910Z,13.10
2022-10-28T21:09:05.404Z,13.20
2022-10-28T21:12:47.531Z,13.10
2022-10-28T21:16:30.423Z,13.20
2022-10-28T21:20:12.677Z,13.10
2022-10-28T21:23:55.017Z,13.10
2022-10-28T21:27:37.041Z,13.20
2022-10-28T21:31:20.501Z,13.10
2022-10-28T21:35:02.590Z,13.10
2022-10-28T21:38:45.662Z,13.10
2022-10-28T21:42:27.942Z,13.20
2022-10-28T21:46:10.650Z,13.10
2022-10-28T21:49:52.747Z,13.10
2022-10-28T21:53:36.342Z,13.10
2022-10-28T21:57:18.370Z,13.10
2022-10-28T22:01:07.626Z,13.10
2022-10-28T22:04:49.686Z,13.10
2022-10-28T22:08:31.957Z,13.10
2022-10-28T22:12:14.110Z,13.10
2022-10-28T22:16:01.176Z,13.10
2022-10-28T22:19:43.148Z,13.10
2022-10-28T22:23:25.202Z,13.20
2022-10-28T22:27:07.197Z,13.20
2022-10-28T22:30:49.330Z,13.20
2022-10-28T22:34:31.322Z,13.20
2022-10-28T22:38:13.339Z,13.30
2022-10-28T22:41:55.421Z,13.30
2022-10-28T22:45:37.478Z,13.30
2022-10-28T22:49:22.582Z,13.40
2022-10-28T22:53:04.682Z,13.40
2022-10-28T22:56:46.741Z,13.40
2022-10-28T23:00:28.802Z,13.40
2022-10-28T23:04:12.025Z,13.40
2022-10-28T23:07:54.434Z,13.40
2022-10-28T23:11:37.490Z,13.40
2022-10-28T23:15:19.471Z,13.40
2022-10-28T23:19:01.687Z,13.40
2022-10-28T23:22:43.835Z,13.40
2022-10-28T23:26:27.565Z,13.40
2022-10-28T23:30:12.309Z,13.30
2022-10-28T23:33:55.248Z,13.30
2022-10-28T23:37:37.330Z,13.30
2022-10-28T23:41:21.345Z,13.20
2022-10-28T23:45:03.514Z,13.20
2022-10-28T23:48:45.811Z,13.20
2022-10-28T23:52:27.935Z,13.20
2022-10-28T23:56:10.001Z,13.20
2022-10-28T23:59:53.762Z,13.20
